createdAt,value
2019-02-06T00:00:13.919Z,0
2019-02-06T00:01:34.298Z,0
2019-02-06T00:02:44.266Z,0
2019-02-06T00:03:54.237Z,0
2019-02-06T00:05:13.806Z,0
2019-02-06T00:06:25.361Z,0
2019-02-06T00:07:36.160Z,0
2019-02-06T00:08:46.998Z,0
2019-02-06T00:09:57.777Z,0
2019-02-06T00:11:08.687Z,0
2019-02-06T00:12:19.041Z,0
2019-02-06T00:13:29.481Z,0
2019-02-06T00:14:39.741Z,0
2019-02-06T00:15:50.501Z,0
2019-02-06T00:17:00.825Z,0
2019-02-06T00:18:10.915Z,0
2019-02-06T00:19:20.567Z,0
2019-02-06T00:20:30.581Z,0
2019-02-06T00:21:40.541Z,0
2019-02-06T00:22:50.251Z,0
2019-02-06T00:24:00.209Z,0
2019-02-06T00:25:09.664Z,0
2019-02-06T00:26:19.406Z,0
2019-02-06T00:27:29.374Z,0
2019-02-06T00:28:39.334Z,0
2019-02-06T00:29:48.788Z,0
2019-02-06T00:30:58.289Z,0
2019-02-06T00:32:08.065Z,0
2019-02-06T00:33:17.788Z,0
2019-02-06T00:34:27.255Z,0
2019-02-06T00:35:36.709Z,0
2019-02-06T00:36:46.156Z,0
2019-02-06T00:37:55.617Z,0
2019-02-06T00:39:05.076Z,0
2019-02-06T00:40:14.788Z,0
2019-02-06T00:41:24.284Z,0
2019-02-06T00:42:34.246Z,0
2019-02-06T00:43:43.692Z,0
2019-02-06T00:44:53.648Z,0
2019-02-06T00:46:03.625Z,0
2019-02-06T00:47:13.079Z,0
2019-02-06T00:48:23.155Z,0
2019-02-06T00:49:32.632Z,0
2019-02-06T00:50:42.588Z,0
2019-02-06T00:51:52.559Z,0
2019-02-06T00:53:01.785Z,0
2019-02-06T00:54:11.840Z,0
2019-02-06T00:55:21.822Z,0
2019-02-06T00:56:31.309Z,0
2019-02-06T00:57:41.274Z,0
2019-02-06T00:58:50.993Z,0
2019-02-06T01:00:03.325Z,0
2019-02-06T01:01:13.062Z,0
2019-02-06T01:02:22.398Z,0
2019-02-06T01:03:32.136Z,0
2019-02-06T01:04:41.833Z,0
2019-02-06T01:05:51.318Z,0
2019-02-06T01:07:01.013Z,0
2019-02-06T01:08:10.731Z,0
2019-02-06T01:09:20.451Z,0
2019-02-06T01:10:30.164Z,0
2019-02-06T01:11:40.121Z,0
2019-02-06T01:12:50.084Z,0
2019-02-06T01:14:00.037Z,0
2019-02-06T01:15:09.486Z,0
2019-02-06T01:16:19.265Z,0
2019-02-06T01:17:30.553Z,0
2019-02-06T01:18:40.266Z,0
2019-02-06T01:19:49.980Z,0
2019-02-06T01:20:59.717Z,0
2019-02-06T01:22:09.678Z,0
2019-02-06T01:23:20.920Z,0
2019-02-06T01:24:30.882Z,0
2019-02-06T01:25:40.877Z,0
2019-02-06T01:26:50.584Z,0
2019-02-06T01:27:59.799Z,0
2019-02-06T01:29:09.505Z,0
2019-02-06T01:30:18.958Z,0
2019-02-06T01:31:28.916Z,0
2019-02-06T01:32:38.863Z,0
2019-02-06T01:33:48.560Z,0
2019-02-06T01:34:58.013Z,0
2019-02-06T01:36:07.720Z,0
2019-02-06T01:37:17.677Z,0
2019-02-06T01:38:27.379Z,0
2019-02-06T01:39:36.088Z,0
2019-02-06T01:40:45.787Z,0
2019-02-06T01:41:55.576Z,0
2019-02-06T01:43:05.546Z,0
2019-02-06T01:44:15.550Z,0
2019-02-06T01:45:25.364Z,0
2019-02-06T01:46:35.972Z,0
2019-02-06T01:47:46.238Z,0
2019-02-06T01:48:56.185Z,0
2019-02-06T01:50:06.993Z,0
2019-02-06T01:51:17.298Z,0
2019-02-06T01:52:27.710Z,0
2019-02-06T01:53:38.269Z,0
2019-02-06T01:54:48.170Z,0
2019-02-06T01:55:58.141Z,0
2019-02-06T01:57:08.016Z,0
2019-02-06T01:58:17.738Z,0
2019-02-06T01:59:27.436Z,0
2019-02-06T02:00:37.416Z,0
2019-02-06T02:01:47.367Z,0
2019-02-06T02:02:57.060Z,0
2019-02-06T02:04:06.552Z,0
2019-02-06T02:05:16.011Z,0
2019-02-06T02:06:25.726Z,0
2019-02-06T02:07:35.677Z,0
2019-02-06T02:08:45.123Z,0
2019-02-06T02:09:54.315Z,0
2019-02-06T02:11:03.772Z,0
2019-02-06T02:12:13.740Z,0
2019-02-06T02:13:23.440Z,0
2019-02-06T02:14:33.137Z,0
2019-02-06T02:15:42.846Z,0
2019-02-06T02:16:52.551Z,0
2019-02-06T02:18:02.514Z,0
2019-02-06T02:19:12.215Z,0
2019-02-06T02:20:21.927Z,0
2019-02-06T02:21:31.635Z,0
2019-02-06T02:22:41.698Z,0
2019-02-06T02:23:51.679Z,0
2019-02-06T02:25:01.410Z,0
2019-02-06T02:26:11.140Z,0
2019-02-06T02:27:20.597Z,0
2019-02-06T02:28:30.315Z,0
2019-02-06T02:29:39.887Z,0
2019-02-06T02:30:49.390Z,0
2019-02-06T02:31:59.372Z,0
2019-02-06T02:33:09.097Z,0
2019-02-06T02:34:18.802Z,0
2019-02-06T02:35:28.254Z,0
2019-02-06T02:36:38.222Z,0
2019-02-06T02:37:48.206Z,0
2019-02-06T02:38:57.917Z,0
2019-02-06T02:40:07.892Z,0
2019-02-06T02:41:17.885Z,0
2019-02-06T02:42:27.873Z,0
2019-02-06T02:43:37.832Z,0
2019-02-06T02:44:47.787Z,0
2019-02-06T02:45:57.496Z,0
2019-02-06T02:47:07.455Z,0
2019-02-06T02:48:17.563Z,0
2019-02-06T02:49:27.533Z,0
2019-02-06T02:50:37.554Z,0
2019-02-06T02:51:49.300Z,0
2019-02-06T02:52:59.285Z,0
2019-02-06T02:54:09.251Z,0
2019-02-06T02:55:19.028Z,0
2019-02-06T02:56:28.997Z,0
2019-02-06T02:57:38.982Z,0
2019-02-06T02:58:48.703Z,0
2019-02-06T02:59:58.170Z,0
2019-02-06T03:01:07.878Z,0
2019-02-06T03:02:17.589Z,0
2019-02-06T03:03:27.076Z,0
2019-02-06T03:04:36.767Z,0
2019-02-06T03:05:46.734Z,0
2019-02-06T03:06:56.204Z,0
2019-02-06T03:08:05.933Z,0
2019-02-06T03:09:16.106Z,0
2019-02-06T03:10:25.830Z,0
2019-02-06T03:11:35.783Z,0
2019-02-06T03:12:45.241Z,0
2019-02-06T03:13:54.712Z,0
2019-02-06T03:15:04.695Z,0
2019-02-06T03:16:14.649Z,0
2019-02-06T03:17:24.894Z,0
2019-02-06T03:18:34.970Z,0
2019-02-06T03:19:45.354Z,0
2019-02-06T03:20:55.365Z,0
2019-02-06T03:22:06.164Z,0
2019-02-06T03:23:16.484Z,0
2019-02-06T03:24:26.864Z,0
2019-02-06T03:25:37.385Z,0
2019-02-06T03:26:47.954Z,0
2019-02-06T03:27:58.333Z,0
2019-02-06T03:29:08.568Z,0
2019-02-06T03:30:18.574Z,0
2019-02-06T03:31:28.573Z,0
2019-02-06T03:32:38.580Z,0
2019-02-06T03:33:48.609Z,0
2019-02-06T03:34:58.560Z,0
2019-02-06T03:36:08.560Z,0
2019-02-06T03:37:18.008Z,0
2019-02-06T03:38:28.000Z,0
2019-02-06T03:39:37.723Z,0
2019-02-06T03:40:47.682Z,0
2019-02-06T03:41:57.390Z,0
2019-02-06T03:43:07.354Z,0
2019-02-06T03:44:16.320Z,0
2019-02-06T03:45:26.437Z,0
2019-02-06T03:46:36.423Z,0
2019-02-06T03:47:46.406Z,0
2019-02-06T03:48:56.368Z,0
2019-02-06T03:50:06.325Z,0
2019-02-06T03:51:16.029Z,0
2019-02-06T03:52:25.994Z,0
2019-02-06T03:53:35.695Z,0
2019-02-06T03:54:45.649Z,0
2019-02-06T03:55:54.846Z,0
2019-02-06T03:57:04.304Z,0
2019-02-06T03:58:14.315Z,0
2019-02-06T03:59:24.016Z,0
2019-02-06T04:00:33.738Z,0
2019-02-06T04:01:43.205Z,0
2019-02-06T04:02:53.259Z,0
2019-02-06T04:04:03.236Z,0
2019-02-06T04:05:13.246Z,0
2019-02-06T04:06:23.234Z,0
2019-02-06T04:07:33.200Z,0
2019-02-06T04:08:43.174Z,0
2019-02-06T04:09:53.122Z,0
2019-02-06T04:11:02.838Z,0
2019-02-06T04:12:12.568Z,0
2019-02-06T04:13:22.034Z,0
2019-02-06T04:14:31.741Z,0
2019-02-06T04:15:41.218Z,0
2019-02-06T04:16:50.940Z,0
2019-02-06T04:18:01.705Z,0
2019-02-06T04:19:11.161Z,0
2019-02-06T04:20:20.131Z,0
2019-02-06T04:21:29.841Z,0
2019-02-06T04:22:39.571Z,0
2019-02-06T04:23:49.557Z,0
2019-02-06T04:24:59.515Z,0
2019-02-06T04:26:09.532Z,0
2019-02-06T04:27:19.249Z,0
2019-02-06T04:28:29.007Z,0
2019-02-06T04:29:38.474Z,0
2019-02-06T04:30:47.957Z,0
2019-02-06T04:31:57.915Z,0
2019-02-06T04:33:08.074Z,0
2019-02-06T04:34:18.052Z,0
2019-02-06T04:35:27.784Z,0
2019-02-06T04:36:37.033Z,0
2019-02-06T04:37:46.737Z,0
2019-02-06T04:38:56.206Z,0
2019-02-06T04:40:06.160Z,0
2019-02-06T04:41:15.636Z,0
2019-02-06T04:42:25.614Z,0
2019-02-06T04:43:35.570Z,0
2019-02-06T04:44:45.300Z,0
2019-02-06T04:45:54.787Z,0
2019-02-06T04:47:04.512Z,0
2019-02-06T04:48:13.973Z,0
2019-02-06T04:49:23.936Z,0
2019-02-06T04:50:33.382Z,0
2019-02-06T04:51:43.349Z,0
2019-02-06T04:52:53.359Z,0
2019-02-06T04:54:03.071Z,0
2019-02-06T04:55:13.031Z,0
2019-02-06T04:56:22.999Z,0
2019-02-06T04:57:33.442Z,0
2019-02-06T04:58:43.763Z,0
2019-02-06T04:59:54.291Z,0
2019-02-06T05:01:04.930Z,0
2019-02-06T05:02:16.039Z,0
2019-02-06T05:03:28.184Z,0
2019-02-06T05:04:38.741Z,0
2019-02-06T05:05:49.069Z,0
2019-02-06T05:06:59.323Z,0
2019-02-06T05:08:09.244Z,0
2019-02-06T05:09:18.961Z,0
2019-02-06T05:10:28.636Z,0
2019-02-06T05:11:38.343Z,0
2019-02-06T05:12:47.802Z,0
2019-02-06T05:13:57.038Z,0
2019-02-06T05:15:06.685Z,0
2019-02-06T05:16:16.404Z,0
2019-02-06T05:17:26.117Z,0
2019-02-06T05:18:35.827Z,0
2019-02-06T05:19:45.835Z,0
2019-02-06T05:20:55.837Z,0
2019-02-06T05:22:05.623Z,0
2019-02-06T05:23:15.761Z,0
2019-02-06T05:24:24.970Z,0
2019-02-06T05:25:34.932Z,0
2019-02-06T05:26:44.398Z,0
2019-02-06T05:27:53.856Z,0
2019-02-06T05:29:03.571Z,0
2019-02-06T05:30:13.306Z,0
2019-02-06T05:31:22.505Z,0
2019-02-06T05:32:32.635Z,0
2019-02-06T05:33:42.619Z,0
2019-02-06T05:34:52.341Z,0
2019-02-06T05:36:01.815Z,0
2019-02-06T05:37:11.808Z,0
2019-02-06T05:38:21.031Z,0
2019-02-06T05:39:30.760Z,0
2019-02-06T05:40:40.240Z,0
2019-02-06T05:41:50.217Z,0
2019-02-06T05:43:00.314Z,0
2019-02-06T05:44:09.534Z,0
2019-02-06T05:45:19.361Z,0
2019-02-06T05:46:29.083Z,0
2019-02-06T05:47:38.702Z,0
2019-02-06T05:48:51.861Z,0
2019-02-06T05:50:01.622Z,0
2019-02-06T05:51:11.580Z,0
2019-02-06T05:52:21.639Z,0
2019-02-06T05:53:31.102Z,0
2019-02-06T05:54:40.844Z,0
2019-02-06T05:55:50.820Z,0
2019-02-06T05:57:00.807Z,0
2019-02-06T05:58:10.683Z,0
2019-02-06T05:59:20.378Z,0
2019-02-06T06:00:30.336Z,0
2019-02-06T06:01:40.055Z,0
2019-02-06T06:02:50.015Z,0
2019-02-06T06:03:59.991Z,0
2019-02-06T06:05:09.687Z,0
2019-02-06T06:06:19.682Z,0
2019-02-06T06:07:29.694Z,0
2019-02-06T06:08:52.051Z,0
2019-02-06T06:10:01.527Z,0
2019-02-06T06:11:11.498Z,0
2019-02-06T06:12:21.471Z,0
2019-02-06T06:13:31.183Z,0
2019-02-06T06:14:41.151Z,0
2019-02-06T06:15:50.890Z,0
2019-02-06T06:17:00.359Z,0
2019-02-06T06:18:10.418Z,0
2019-02-06T06:19:20.184Z,0
2019-02-06T06:20:29.888Z,0
2019-02-06T06:21:39.731Z,0
2019-02-06T06:22:49.811Z,0
2019-02-06T06:23:59.774Z,0
2019-02-06T06:25:09.734Z,0
2019-02-06T06:26:19.475Z,4
2019-02-06T06:27:28.946Z,4
2019-02-06T06:28:38.940Z,0
2019-02-06T06:29:48.649Z,0
2019-02-06T06:30:58.388Z,0
2019-02-06T06:32:08.103Z,0
2019-02-06T06:33:18.237Z,4
2019-02-06T06:34:28.568Z,4
2019-02-06T06:35:38.701Z,0
2019-02-06T06:36:49.280Z,4
2019-02-06T06:38:09.883Z,4
2019-02-06T06:39:19.846Z,4
2019-02-06T06:40:29.850Z,4
2019-02-06T06:41:39.630Z,8
2019-02-06T06:42:49.374Z,12
2019-02-06T06:43:59.105Z,12
2019-02-06T06:45:09.056Z,12
2019-02-06T06:46:18.505Z,16
2019-02-06T06:47:28.216Z,16
2019-02-06T06:48:38.196Z,20
2019-02-06T06:49:48.171Z,20
2019-02-06T06:50:58.125Z,24
2019-02-06T06:52:10.855Z,28
2019-02-06T06:53:20.641Z,32
2019-02-06T06:54:30.349Z,40
2019-02-06T06:55:42.451Z,40
2019-02-06T06:56:52.138Z,40
2019-02-06T06:58:01.865Z,44
2019-02-06T06:59:11.554Z,44
2019-02-06T07:00:21.510Z,52
2019-02-06T07:01:30.961Z,52
2019-02-06T07:02:40.660Z,56
2019-02-06T07:03:50.613Z,60
2019-02-06T07:04:59.588Z,60
2019-02-06T07:06:09.570Z,64
2019-02-06T07:07:19.550Z,76
2019-02-06T07:08:29.247Z,84
2019-02-06T07:09:38.733Z,88
2019-02-06T07:10:48.689Z,96
2019-02-06T07:11:58.147Z,100
2019-02-06T07:13:07.871Z,108
2019-02-06T07:14:17.594Z,116
2019-02-06T07:15:27.545Z,132
2019-02-06T07:16:36.997Z,160
2019-02-06T07:17:46.693Z,192
2019-02-06T07:18:56.403Z,224
2019-02-06T07:20:06.362Z,244
2019-02-06T07:21:15.804Z,264
2019-02-06T07:22:25.258Z,268
2019-02-06T07:23:34.988Z,280
2019-02-06T07:24:45.058Z,288
2019-02-06T07:25:54.522Z,332
2019-02-06T07:27:04.488Z,388
2019-02-06T07:28:14.202Z,472
2019-02-06T07:29:24.173Z,592
2019-02-06T07:30:34.196Z,716
2019-02-06T07:31:43.902Z,808
2019-02-06T07:32:53.364Z,880
2019-02-06T07:34:03.351Z,928
2019-02-06T07:35:13.332Z,960
2019-02-06T07:36:23.047Z,972
2019-02-06T07:37:33.004Z,980
2019-02-06T07:38:42.708Z,984
2019-02-06T07:39:52.664Z,1008
2019-02-06T07:41:02.622Z,1028
2019-02-06T07:42:12.328Z,1028
2019-02-06T07:43:22.404Z,1024
2019-02-06T07:44:32.121Z,1028
2019-02-06T07:45:41.703Z,1064
2019-02-06T07:46:51.427Z,1108
2019-02-06T07:48:01.390Z,1144
2019-02-06T07:49:11.093Z,1188
2019-02-06T07:50:20.556Z,1240
2019-02-06T07:51:30.300Z,1292
2019-02-06T07:52:40.000Z,1348
2019-02-06T07:53:49.565Z,1396
2019-02-06T07:54:59.027Z,1436
2019-02-06T07:56:08.798Z,1452
2019-02-06T07:57:18.305Z,1472
2019-02-06T07:58:28.187Z,1536
2019-02-06T07:59:38.232Z,1592
2019-02-06T08:00:48.570Z,1604
2019-02-06T08:01:59.379Z,1628
2019-02-06T08:03:09.297Z,1660
2019-02-06T08:04:19.953Z,1712
2019-02-06T08:05:30.302Z,1752
2019-02-06T08:06:40.979Z,1772
2019-02-06T08:07:51.570Z,1788
2019-02-06T08:09:01.295Z,1804
2019-02-06T08:10:11.843Z,1856
2019-02-06T08:11:21.801Z,1920
2019-02-06T08:12:31.680Z,1980
2019-02-06T08:13:41.658Z,2012
2019-02-06T08:14:51.368Z,2052
2019-02-06T08:16:00.552Z,2100
2019-02-06T08:17:10.086Z,2144
2019-02-06T08:18:20.050Z,2184
2019-02-06T08:19:29.505Z,2208
2019-02-06T08:20:39.462Z,2240
2019-02-06T08:21:52.256Z,2268
2019-02-06T08:23:01.977Z,2292
2019-02-06T08:24:11.714Z,2320
2019-02-06T08:25:21.185Z,2344
2019-02-06T08:26:30.681Z,2360
2019-02-06T08:27:40.392Z,2368
2019-02-06T08:28:50.347Z,2364
2019-02-06T08:29:59.805Z,2364
2019-02-06T08:31:09.765Z,2368
2019-02-06T08:32:19.581Z,2392
2019-02-06T08:33:29.544Z,2424
2019-02-06T08:34:39.273Z,2460
2019-02-06T08:35:49.047Z,2516
2019-02-06T08:36:59.032Z,2584
2019-02-06T08:38:08.755Z,2632
2019-02-06T08:39:18.218Z,2716
2019-02-06T08:40:27.932Z,2812
2019-02-06T08:41:37.891Z,2872
2019-02-06T08:42:47.349Z,2924
2019-02-06T08:43:57.081Z,2996
2019-02-06T08:45:09.566Z,3084
2019-02-06T08:46:19.051Z,3128
2019-02-06T08:47:29.047Z,3136
2019-02-06T08:48:39.022Z,3096
2019-02-06T08:49:48.484Z,3072
2019-02-06T08:50:57.934Z,3080
2019-02-06T08:52:07.640Z,3064
2019-02-06T08:53:17.344Z,3044
2019-02-06T08:54:27.701Z,3064
2019-02-06T08:55:37.674Z,3192
2019-02-06T08:56:47.385Z,3344
2019-02-06T08:57:57.360Z,3488
2019-02-06T08:59:06.558Z,3612
2019-02-06T09:00:16.042Z,3708
2019-02-06T09:01:26.018Z,3780
2019-02-06T09:02:35.250Z,3820
2019-02-06T09:03:45.236Z,3920
2019-02-06T09:05:02.591Z,3944
2019-02-06T09:06:15.093Z,3956
2019-02-06T09:07:24.810Z,3976
2019-02-06T09:08:34.301Z,4016
2019-02-06T09:09:46.046Z,4068
2019-02-06T09:10:56.092Z,4140
2019-02-06T09:12:05.802Z,4200
2019-02-06T09:13:16.012Z,4208
2019-02-06T09:14:26.000Z,4176
2019-02-06T09:15:35.972Z,4208
2019-02-06T09:16:46.383Z,4204
2019-02-06T09:17:57.204Z,4172
2019-02-06T09:19:07.449Z,4160
2019-02-06T09:20:18.535Z,4160
2019-02-06T09:21:28.437Z,4192
2019-02-06T09:22:38.601Z,4212
2019-02-06T09:23:48.766Z,4220
2019-02-06T09:24:58.765Z,4232
2019-02-06T09:26:08.764Z,4264
2019-02-06T09:27:19.005Z,4280
2019-02-06T09:28:28.957Z,4304
2019-02-06T09:29:38.420Z,4368
2019-02-06T09:30:48.124Z,4492
2019-02-06T09:31:59.387Z,4684
2019-02-06T09:33:09.644Z,4864
2019-02-06T09:34:18.855Z,5028
2019-02-06T09:35:28.399Z,5180
2019-02-06T09:36:38.360Z,5420
2019-02-06T09:37:48.086Z,5660
2019-02-06T09:38:57.298Z,5932
2019-02-06T09:40:18.604Z,6264
2019-02-06T09:41:28.368Z,6448
2019-02-06T09:42:38.339Z,6572
2019-02-06T09:43:47.793Z,6704
2019-02-06T09:44:57.540Z,6792
2019-02-06T09:46:07.244Z,6872
2019-02-06T09:47:17.233Z,6888
2019-02-06T09:48:27.442Z,6800
2019-02-06T09:49:37.169Z,6700
2019-02-06T09:50:49.168Z,6600
2019-02-06T09:51:58.630Z,6488
2019-02-06T09:53:08.577Z,6432
2019-02-06T09:54:18.288Z,6312
2019-02-06T09:55:27.988Z,6180
2019-02-06T09:56:37.205Z,6192
2019-02-06T09:57:47.229Z,5972
2019-02-06T09:58:57.222Z,5880
2019-02-06T10:00:06.201Z,5708
2019-02-06T10:01:15.918Z,5844
2019-02-06T10:02:28.834Z,6068
2019-02-06T10:03:38.298Z,5920
2019-02-06T10:04:48.007Z,5836
2019-02-06T10:05:57.715Z,5516
2019-02-06T10:07:06.667Z,5280
2019-02-06T10:08:15.871Z,5004
2019-02-06T10:09:30.104Z,4688
2019-02-06T10:10:39.892Z,4340
2019-02-06T10:11:49.669Z,4188
2019-02-06T10:12:59.635Z,3912
2019-02-06T10:14:09.377Z,3496
2019-02-06T10:15:19.080Z,3172
2019-02-06T10:16:29.026Z,2988
2019-02-06T10:17:41.065Z,2956
2019-02-06T10:18:50.527Z,3016
2019-02-06T10:20:00.336Z,3060
2019-02-06T10:21:10.052Z,3144
2019-02-06T10:22:20.007Z,3052
2019-02-06T10:23:30.079Z,2788
2019-02-06T10:24:40.054Z,2664
2019-02-06T10:25:53.369Z,2584
2019-02-06T10:27:04.512Z,2424
2019-02-06T10:28:15.445Z,2444
2019-02-06T10:29:26.322Z,2436
2019-02-06T10:30:36.778Z,2556
2019-02-06T10:31:47.029Z,2816
2019-02-06T10:32:57.189Z,2812
2019-02-06T10:34:07.047Z,2832
2019-02-06T10:35:17.355Z,2768
2019-02-06T10:36:27.317Z,2672
2019-02-06T10:37:37.280Z,2716
2019-02-06T10:38:46.977Z,2804
2019-02-06T10:39:58.562Z,2828
2019-02-06T10:41:11.555Z,2772
2019-02-06T10:42:21.031Z,2636
2019-02-06T10:43:40.500Z,2628
2019-02-06T10:44:50.456Z,2604
2019-02-06T10:46:00.553Z,2608
2019-02-06T10:47:10.295Z,2604
2019-02-06T10:48:19.994Z,2668
2019-02-06T10:49:30.050Z,2456
2019-02-06T10:50:39.500Z,2332
2019-02-06T10:51:49.201Z,2272
2019-02-06T10:52:59.219Z,2320
2019-02-06T10:54:08.937Z,2444
2019-02-06T10:55:18.649Z,2500
2019-02-06T10:56:28.637Z,2648
2019-02-06T10:57:38.106Z,2836
2019-02-06T10:58:47.811Z,2916
2019-02-06T10:59:57.825Z,3076
2019-02-06T11:01:07.901Z,3172
2019-02-06T11:02:17.867Z,3148
2019-02-06T11:03:27.842Z,3112
2019-02-06T11:04:37.661Z,3152
2019-02-06T11:05:47.636Z,3044
2019-02-06T11:06:57.108Z,2992
2019-02-06T11:08:06.804Z,3168
2019-02-06T11:09:16.509Z,3120
2019-02-06T11:10:26.236Z,3124
2019-02-06T11:11:36.192Z,3172
2019-02-06T11:12:45.910Z,3196
2019-02-06T11:13:57.116Z,3324
2019-02-06T11:15:06.600Z,3704
2019-02-06T11:16:16.297Z,4080
2019-02-06T11:17:25.758Z,4356
2019-02-06T11:18:35.463Z,4452
2019-02-06T11:19:47.858Z,4476
2019-02-06T11:20:57.072Z,4580
2019-02-06T11:22:06.774Z,4504
2019-02-06T11:23:16.721Z,4304
2019-02-06T11:24:29.302Z,4076
2019-02-06T11:25:38.760Z,3900
2019-02-06T11:26:48.510Z,3680
2019-02-06T11:27:58.552Z,3428
2019-02-06T11:29:08.596Z,3336
2019-02-06T11:30:18.572Z,3224
2019-02-06T11:31:28.742Z,3188
2019-02-06T11:32:39.231Z,3256
2019-02-06T11:33:49.815Z,3600
2019-02-06T11:35:02.277Z,4072
2019-02-06T11:36:23.529Z,4292
2019-02-06T11:37:33.523Z,4044
2019-02-06T11:38:43.482Z,3648
2019-02-06T11:40:04.817Z,3388
2019-02-06T11:41:14.293Z,3636
2019-02-06T11:42:24.010Z,3776
2019-02-06T11:43:37.004Z,3720
2019-02-06T11:44:47.030Z,3532
2019-02-06T11:45:56.741Z,3300
2019-02-06T11:47:06.197Z,3196
2019-02-06T11:48:16.150Z,2856
2019-02-06T11:49:25.855Z,2736
2019-02-06T11:50:35.058Z,2636
2019-02-06T11:51:44.763Z,2580
2019-02-06T11:52:54.754Z,2400
2019-02-06T11:54:04.708Z,2468
2019-02-06T11:55:15.934Z,2584
2019-02-06T11:56:25.663Z,2668
2019-02-06T11:57:35.373Z,2892
2019-02-06T11:58:45.072Z,3052
2019-02-06T11:59:57.752Z,3192
2019-02-06T12:01:07.951Z,3248
2019-02-06T12:02:17.649Z,3264
2019-02-06T12:03:29.274Z,3140
2019-02-06T12:04:38.993Z,3148
2019-02-06T12:05:48.929Z,3116
2019-02-06T12:06:58.877Z,3164
2019-02-06T12:08:08.635Z,2948
2019-02-06T12:09:20.379Z,2956
2019-02-06T12:10:30.342Z,3080
2019-02-06T12:11:40.041Z,3328
2019-02-06T12:12:49.990Z,3324
2019-02-06T12:14:00.129Z,3260
2019-02-06T12:15:10.243Z,3132
2019-02-06T12:16:20.756Z,3004
2019-02-06T12:17:31.589Z,3012
2019-02-06T12:18:42.078Z,3064
2019-02-06T12:19:53.082Z,3084
2019-02-06T12:21:03.686Z,3088
2019-02-06T12:22:14.190Z,3200
2019-02-06T12:23:36.557Z,3164
2019-02-06T12:24:46.292Z,3104
2019-02-06T12:25:55.995Z,3028
2019-02-06T12:27:05.962Z,3264
2019-02-06T12:28:14.936Z,3312
2019-02-06T12:29:24.692Z,3264
2019-02-06T12:30:34.799Z,3180
2019-02-06T12:31:44.524Z,2956
2019-02-06T12:32:59.500Z,3080
2019-02-06T12:34:09.461Z,2932
2019-02-06T12:35:18.922Z,2884
2019-02-06T12:36:28.633Z,2712
2019-02-06T12:37:38.402Z,2508
2019-02-06T12:39:00.234Z,2108
2019-02-06T12:40:20.655Z,1844
2019-02-06T12:41:30.465Z,1816
2019-02-06T12:42:39.920Z,2000
2019-02-06T12:43:49.876Z,2424
2019-02-06T12:45:01.548Z,2764
2019-02-06T12:46:11.277Z,3244
2019-02-06T12:47:20.994Z,3624
2019-02-06T12:48:30.953Z,4100
2019-02-06T12:49:40.903Z,4112
2019-02-06T12:50:50.860Z,3764
2019-02-06T12:52:00.065Z,3660
2019-02-06T12:53:09.790Z,3720
2019-02-06T12:54:19.503Z,3676
2019-02-06T12:55:28.968Z,3456
2019-02-06T12:56:38.669Z,3312
2019-02-06T12:57:48.141Z,3396
2019-02-06T12:58:57.876Z,3428
2019-02-06T13:00:07.850Z,3320
2019-02-06T13:01:17.572Z,3260
2019-02-06T13:02:27.324Z,3408
2019-02-06T13:03:36.535Z,3628
2019-02-06T13:04:46.503Z,3480
2019-02-06T13:05:56.468Z,3320
2019-02-06T13:07:07.469Z,3304
2019-02-06T13:08:19.845Z,3436
2019-02-06T13:09:29.564Z,3704
2019-02-06T13:10:41.591Z,3696
2019-02-06T13:11:51.325Z,3724
2019-02-06T13:13:01.634Z,4132
2019-02-06T13:14:11.460Z,4180
2019-02-06T13:15:21.799Z,4300
2019-02-06T13:16:32.166Z,4320
2019-02-06T13:17:43.225Z,4176
2019-02-06T13:18:53.821Z,4032
2019-02-06T13:20:04.355Z,4020
2019-02-06T13:21:14.933Z,3744
2019-02-06T13:22:25.062Z,3564
2019-02-06T13:23:34.598Z,3316
2019-02-06T13:24:44.588Z,3108
2019-02-06T13:25:54.549Z,3092
2019-02-06T13:27:04.399Z,2924
2019-02-06T13:28:14.358Z,2824
2019-02-06T13:29:23.970Z,2776
2019-02-06T13:30:33.449Z,3060
2019-02-06T13:31:43.183Z,3328
2019-02-06T13:32:52.748Z,3080
2019-02-06T13:34:02.239Z,2920
2019-02-06T13:35:11.970Z,3004
2019-02-06T13:36:21.445Z,3596
2019-02-06T13:37:30.659Z,3764
2019-02-06T13:38:40.119Z,3332
2019-02-06T13:39:49.578Z,3100
2019-02-06T13:40:58.797Z,2784
2019-02-06T13:42:12.577Z,2892
2019-02-06T13:43:22.047Z,2704
2019-02-06T13:44:31.755Z,2448
2019-02-06T13:45:41.218Z,2524
2019-02-06T13:47:00.117Z,2272
2019-02-06T13:48:09.930Z,2288
2019-02-06T13:49:19.642Z,2280
2019-02-06T13:50:29.420Z,2216
2019-02-06T13:51:38.872Z,2108
2019-02-06T13:52:48.569Z,2076
2019-02-06T13:53:58.029Z,2084
2019-02-06T13:55:07.728Z,1848
2019-02-06T13:56:17.454Z,2008
2019-02-06T13:57:38.427Z,1896
2019-02-06T13:58:47.895Z,2004
2019-02-06T13:59:57.869Z,2088
2019-02-06T14:01:07.734Z,1924
2019-02-06T14:02:17.687Z,2112
2019-02-06T14:03:28.826Z,2292
2019-02-06T14:04:39.085Z,2324
2019-02-06T14:05:51.719Z,2312
2019-02-06T14:07:01.443Z,2488
2019-02-06T14:08:10.413Z,2568
2019-02-06T14:09:31.772Z,2304
2019-02-06T14:10:41.944Z,2420
2019-02-06T14:11:52.001Z,2340
2019-02-06T14:13:02.244Z,2136
2019-02-06T14:14:11.962Z,2044
2019-02-06T14:15:21.968Z,1932
2019-02-06T14:16:34.142Z,2220
2019-02-06T14:17:43.861Z,2180
2019-02-06T14:18:53.062Z,1872
2019-02-06T14:20:05.858Z,1956
2019-02-06T14:21:15.807Z,1792
2019-02-06T14:22:25.843Z,1712
2019-02-06T14:23:35.054Z,1752
2019-02-06T14:24:45.024Z,1808
2019-02-06T14:25:54.237Z,1760
2019-02-06T14:27:04.094Z,1984
2019-02-06T14:28:13.783Z,1840
2019-02-06T14:29:22.989Z,1880
2019-02-06T14:30:32.192Z,1936
2019-02-06T14:31:42.147Z,2096
2019-02-06T14:32:51.598Z,2180
2019-02-06T14:34:01.315Z,1924
2019-02-06T14:35:11.021Z,1944
2019-02-06T14:36:20.499Z,1880
2019-02-06T14:37:32.564Z,1968
2019-02-06T14:38:42.292Z,1800
2019-02-06T14:39:52.113Z,1460
2019-02-06T14:41:12.966Z,1232
2019-02-06T14:42:22.682Z,1236
2019-02-06T14:43:32.629Z,1296
2019-02-06T14:44:42.610Z,1228
2019-02-06T14:45:52.063Z,1252
2019-02-06T14:47:01.782Z,1148
2019-02-06T14:48:11.765Z,1348
2019-02-06T14:49:21.234Z,1364
2019-02-06T14:50:30.948Z,1408
2019-02-06T14:51:40.914Z,1348
2019-02-06T14:52:50.638Z,1264
2019-02-06T14:54:00.597Z,1316
2019-02-06T14:55:10.317Z,1420
2019-02-06T14:56:20.926Z,1516
2019-02-06T14:57:30.927Z,1508
2019-02-06T14:58:40.213Z,1596
2019-02-06T14:59:49.761Z,1544
2019-02-06T15:01:08.819Z,1572
2019-02-06T15:02:18.796Z,1512
2019-02-06T15:03:28.698Z,1292
2019-02-06T15:04:38.404Z,1296
2019-02-06T15:05:48.124Z,1276
2019-02-06T15:06:57.941Z,1236
2019-02-06T15:08:08.579Z,1216
2019-02-06T15:09:18.417Z,1180
2019-02-06T15:10:30.046Z,1012
2019-02-06T15:11:39.772Z,932
2019-02-06T15:12:49.480Z,852
2019-02-06T15:13:59.189Z,700
2019-02-06T15:15:09.141Z,644
2019-02-06T15:16:18.608Z,572
2019-02-06T15:17:28.346Z,528
2019-02-06T15:18:38.691Z,464
2019-02-06T15:19:48.267Z,448
2019-02-06T15:20:58.228Z,476
2019-02-06T15:22:07.704Z,412
2019-02-06T15:23:17.677Z,436
2019-02-06T15:24:27.630Z,432
2019-02-06T15:25:38.379Z,444
2019-02-06T15:26:48.089Z,536
2019-02-06T15:27:57.558Z,580
2019-02-06T15:29:07.309Z,580
2019-02-06T15:30:17.013Z,560
2019-02-06T15:31:26.964Z,536
2019-02-06T15:32:36.960Z,484
2019-02-06T15:33:46.657Z,452
2019-02-06T15:34:56.009Z,468
2019-02-06T15:36:06.005Z,448
2019-02-06T15:37:16.011Z,428
2019-02-06T15:38:26.019Z,408
2019-02-06T15:39:35.975Z,400
2019-02-06T15:40:45.683Z,460
2019-02-06T15:41:55.637Z,560
2019-02-06T15:43:05.353Z,468
2019-02-06T15:44:15.322Z,412
2019-02-06T15:45:25.017Z,436
2019-02-06T15:46:34.477Z,444
2019-02-06T15:47:43.933Z,360
2019-02-06T15:48:53.395Z,272
2019-02-06T15:50:02.856Z,276
2019-02-06T15:51:12.323Z,276
2019-02-06T15:52:22.442Z,252
2019-02-06T15:53:32.581Z,228
2019-02-06T15:54:43.836Z,228
2019-02-06T15:55:53.839Z,216
2019-02-06T15:57:03.847Z,204
2019-02-06T15:58:16.012Z,196
2019-02-06T15:59:26.088Z,176
2019-02-06T16:00:39.181Z,184
2019-02-06T16:01:50.088Z,200
2019-02-06T16:03:00.602Z,172
2019-02-06T16:04:10.907Z,148
2019-02-06T16:05:20.589Z,144
2019-02-06T16:06:30.850Z,144
2019-02-06T16:07:39.776Z,124
2019-02-06T16:08:49.512Z,112
2019-02-06T16:09:59.222Z,108
2019-02-06T16:11:08.690Z,96
2019-02-06T16:12:18.431Z,84
2019-02-06T16:13:28.168Z,80
2019-02-06T16:14:38.145Z,64
2019-02-06T16:15:48.108Z,56
2019-02-06T16:16:58.064Z,48
2019-02-06T16:18:08.021Z,44
2019-02-06T16:19:19.642Z,44